Time;durP1;ratioP1;P1;durP2;ratioP2;P2;SDS_P1;SDS_P2;PMS_P1;PMS_P2;Temp;Humidity;BMP_temperature;BMP_pressure;BME280_temperature;BME280_humidity;BME280_pressure;Samples;Min_cycle;Max_cycle;Signal;HPM_P1;HPM_P2
2021/11/01 00:00:13;;;;;;;20.02;3.22;;;12.30;85.50;;;;;;5033718;28;20037;-74
2021/11/01 00:02:41;;;;;;;10.27;2.78;;;12.30;85.50;;;;;;5038071;28;20040;-74
2021/11/01 00:05:07;;;;;;;14.10;3.40;;;12.30;85.70;;;;;;5041766;28;20090;-74
2021/11/01 00:07:33;;;;;;;20.10;3.05;;;12.30;85.70;;;;;;5034623;28;20033;-74
2021/11/01 00:09:59;;;;;;;13.15;2.20;;;12.20;85.40;;;;;;5027559;28;20083;-74
2021/11/01 00:12:29;;;;;;;24.02;4.13;;;12.20;85.50;;;;;;5033209;28;20397;-70
2021/11/01 00:14:56;;;;;;;17.05;4.28;;;12.20;85.50;;;;;;5038850;28;20113;-74
2021/11/01 00:17:22;;;;;;;16.15;3.53;;;12.20;85.40;;;;;;5035375;28;20049;-74
2021/11/01 00:19:48;;;;;;;14.77;3.08;;;12.20;85.40;;;;;;5032872;28;20547;-74
2021/11/01 00:22:13;;;;;;;18.20;3.30;;;12.10;85.40;;;;;;5034264;28;20215;-74
2021/11/01 00:24:39;;;;;;;17.80;2.83;;;12.10;85.50;;;;;;5030964;28;20575;-74
2021/11/01 00:27:05;;;;;;;17.95;3.58;;;12.10;85.60;;;;;;5039365;28;20041;-74
2021/11/01 00:29:31;;;;;;;15.95;3.42;;;12.10;85.30;;;;;;5026301;28;20033;-73
2021/11/01 00:31:56;;;;;;;21.15;3.78;;;12.10;85.30;;;;;;4998137;28;20037;-74
2021/11/01 00:34:22;;;;;;;19.63;3.22;;;12.10;85.30;;;;;;5031138;28;20453;-74
2021/11/01 00:36:48;;;;;;;12.95;3.33;;;12.10;85.40;;;;;;5031498;28;20037;-74
2021/11/01 00:39:14;;;;;;;16.38;3.10;;;12.10;85.40;;;;;;5031303;28;20038;-75
2021/11/01 00:41:39;;;;;;;15.63;3.38;;;12.00;85.30;;;;;;5031706;28;20074;-72
2021/11/01 00:44:05;;;;;;;14.68;3.85;;;12.00;85.40;;;;;;5030538;28;20033;-72
2021/11/01 00:46:32;;;;;;;11.93;2.85;;;12.00;85.40;;;;;;5029757;28;20117;-71
2021/11/01 00:48:58;;;;;;;15.57;3.40;;;12.00;85.50;;;;;;5029542;28;20091;-72
2021/11/01 00:51:23;;;;;;;18.33;3.55;;;11.90;85.30;;;;;;5031497;28;20464;-71
2021/11/01 00:53:50;;;;;;;14.13;3.25;;;11.90;85.30;;;;;;5029784;28;20495;-72
2021/11/01 00:56:17;;;;;;;15.50;3.63;;;11.90;85.40;;;;;;5029825;28;20071;-72
2021/11/01 00:58:43;;;;;;;13.45;3.17;;;11.90;85.40;;;;;;5028811;28;20072;-73
2021/11/01 01:01:09;;;;;;;13.23;2.78;;;11.90;85.40;;;;;;5013428;28;20025;-75
2021/11/01 01:03:35;;;;;;;13.60;2.63;;;11.90;85.40;;;;;;5031350;28;20086;-73
2021/11/01 01:06:03;;;;;;;18.92;3.08;;;11.90;85.30;;;;;;5030681;28;20034;-74
2021/11/01 01:08:29;;;;;;;14.90;3.05;;;11.80;85.30;;;;;;5013093;28;20026;-74
2021/11/01 01:10:55;;;;;;;12.80;2.67;;;11.80;85.30;;;;;;5030875;28;20037;-74
2021/11/01 01:13:27;;;;;;;11.52;2.50;;;11.80;85.30;;;;;;5030394;28;20051;-74
2021/11/01 01:18:39;;;;;;;13.27;3.53;;;11.80;85.40;;;;;;5031241;28;20125;-74
2021/11/01 01:23:50;;;;;;;11.52;2.65;;;11.70;85.30;;;;;;5025518;28;20095;-74
2021/11/01 01:26:16;;;;;;;11.52;2.60;;;11.70;85.40;;;;;;5028378;28;20045;-71
2021/11/01 01:28:43;;;;;;;14.30;3.90;;;11.70;85.20;;;;;;5024841;28;20017;-71
2021/11/01 01:31:10;;;;;;;15.73;2.70;;;11.70;85.40;;;;;;5030524;28;20037;-71
2021/11/01 01:33:36;;;;;;;15.10;3.05;;;11.70;85.40;;;;;;5030948;28;20115;-71
2021/11/01 01:36:02;;;;;;;19.88;3.40;;;11.70;85.30;;;;;;5027997;28;20053;-70
2021/11/01 01:38:28;;;;;;;12.55;2.60;;;11.70;85.20;;;;;;5023599;28;20083;-70
2021/11/01 01:40:54;;;;;;;15.25;2.70;;;11.60;85.20;;;;;;5029294;28;20381;-74
2021/11/01 01:43:20;;;;;;;15.95;2.95;;;11.60;85.20;;;;;;5030205;28;20038;-73
2021/11/01 01:45:46;;;;;;;14.05;2.65;;;11.60;85.20;;;;;;5026129;28;20033;-73
2021/11/01 01:48:13;;;;;;;13.82;2.38;;;11.60;85.00;;;;;;5030079;28;20029;-73
2021/11/01 01:50:40;;;;;;;15.30;2.35;;;11.60;85.20;;;;;;5028487;28;20121;-74
2021/11/01 01:53:06;;;;;;;15.73;2.67;;;11.50;85.10;;;;;;5030526;28;20021;-74
2021/11/01 01:55:34;;;;;;;12.32;2.30;;;11.50;85.00;;;;;;5028426;28;20542;-74
2021/11/01 01:58:00;;;;;;;17.45;2.38;;;11.50;84.90;;;;;;5028740;28;20112;-74
2021/11/01 02:02:59;;;;;;;;;;;11.50;84.80;;;;;;5030641;28;20034;-73
2021/11/01 02:05:35;;;;;;;10.27;2.22;;;11.50;84.80;;;;;;5029119;28;19909;-73
2021/11/01 02:08:06;;;;;;;19.13;2.97;;;11.40;84.90;;;;;;5030391;28;20028;-73
2021/11/01 02:10:37;;;;;;;11.65;1.98;;;11.40;84.90;;;;;;5029501;28;20358;-74
2021/11/01 02:13:07;;;;;;;8.40;2.40;;;11.40;85.00;;;;;;5029837;28;20025;-74
2021/11/01 02:15:52;;;;;;;7.72;1.90;;;11.40;85.10;;;;;;5026935;28;20516;-74
2021/11/01 02:18:20;;;;;;;10.85;2.00;;;11.40;85.00;;;;;;5027139;28;20056;-73
2021/11/01 02:21:03;;;;;;;12.50;2.15;;;11.40;84.80;;;;;;5029557;28;20029;-74
2021/11/01 02:23:52;;;;;;;10.30;2.22;;;11.30;84.70;;;;;;5026492;28;20017;-74
2021/11/01 02:26:19;;;;;;;8.60;1.90;;;11.30;84.80;;;;;;5028911;28;20112;-74
2021/11/01 02:28:47;;;;;;;11.38;2.17;;;11.30;85.00;;;;;;5028155;28;20037;-74
2021/11/01 02:31:23;;;;;;;11.30;1.92;;;11.30;85.10;;;;;;5029471;28;20029;-74
2021/11/01 02:33:50;;;;;;;10.48;2.00;;;11.30;84.80;;;;;;5029639;28;20041;-74
2021/11/01 02:36:17;;;;;;;6.68;1.70;;;11.20;84.50;;;;;;5028395;28;20084;-74
2021/11/01 02:38:45;;;;;;;10.00;1.90;;;11.20;84.90;;;;;;5028795;28;20052;-74
2021/11/01 02:41:21;;;;;;;10.30;2.05;;;11.20;84.80;;;;;;5029160;28;20532;-74
2021/11/01 02:43:51;;;;;;;18.80;3.13;;;11.20;85.00;;;;;;5016299;28;20032;-74
2021/11/01 02:46:17;;;;;;;10.32;2.20;;;11.20;85.00;;;;;;5028909;28;20497;-71
2021/11/01 02:48:47;;;;;;;11.23;1.80;;;11.20;85.10;;;;;;5028243;28;20099;-71
2021/11/01 02:51:15;;;;;;;9.80;2.08;;;11.20;85.20;;;;;;5027463;28;20044;-72
2021/11/01 02:53:42;;;;;;;7.40;1.88;;;11.10;85.10;;;;;;5029605;28;20017;-71
2021/11/01 02:56:09;;;;;;;10.75;1.98;;;11.10;85.30;;;;;;5028948;28;20037;-71
2021/11/01 02:58:37;;;;;;;9.88;1.73;;;11.10;85.30;;;;;;5029463;28;20021;-71
2021/11/01 03:01:03;;;;;;;13.85;2.25;;;11.10;85.30;;;;;;5028107;28;20105;-71
2021/11/01 03:03:29;;;;;;;13.10;2.28;;;11.10;85.40;;;;;;5030221;28;20033;-71
2021/11/01 03:05:55;;;;;;;11.63;2.13;;;11.10;85.50;;;;;;5028604;28;20030;-74
2021/11/01 03:08:21;;;;;;;12.68;2.50;;;11.10;85.50;;;;;;5027524;28;20056;-74
2021/11/01 03:10:47;;;;;;;7.55;1.90;;;11.10;85.60;;;;;;5011755;28;20068;-75
2021/11/01 03:13:13;;;;;;;10.25;2.22;;;11.10;85.50;;;;;;5029318;28;20036;-74
2021/11/01 03:15:40;;;;;;;9.50;2.22;;;11.10;85.50;;;;;;5015547;28;20100;-74
2021/11/01 03:18:09;;;;;;;9.60;1.83;;;11.10;85.30;;;;;;5028271;28;20041;-71
2021/11/01 03:20:42;;;;;;;11.95;2.30;;;11.10;85.30;;;;;;5027313;28;20029;-71
2021/11/01 03:23:15;;;;;;;13.32;2.33;;;11.10;85.20;;;;;;5028116;28;20022;-72
2021/11/01 03:26:00;;;;;;;9.63;1.80;;;11.00;85.40;;;;;;5025569;28;20042;-72
2021/11/01 03:28:26;;;;;;;10.88;2.17;;;11.00;85.50;;;;;;5029398;28;21089;-72
2021/11/01 03:30:56;;;;;;;11.15;1.98;;;11.00;85.60;;;;;;5027483;28;20034;-72
2021/11/01 03:33:23;;;;;;;13.18;2.00;;;11.00;85.80;;;;;;5028690;28;20052;-75
2021/11/01 03:35:50;;;;;;;6.18;1.80;;;10.90;85.60;;;;;;5026755;28;20524;-75
2021/11/01 03:38:16;;;;;;;9.77;1.85;;;10.90;85.70;;;;;;5027694;28;20029;-74
2021/11/01 03:40:46;;;;;;;10.77;2.08;;;11.00;85.90;;;;;;5029255;28;20029;-75
2021/11/01 03:43:16;;;;;;;9.18;1.98;;;10.90;85.90;;;;;;5028386;28;20117;-75
2021/11/01 03:45:42;;;;;;;9.73;1.77;;;10.90;86.00;;;;;;5011594;28;20377;-75
2021/11/01 03:48:09;;;;;;;7.43;1.83;;;10.90;85.90;;;;;;5027618;28;20113;-74
2021/11/01 03:50:58;;;;;;;10.80;2.38;;;10.90;86.00;;;;;;5028452;28;20096;-75
2021/11/01 03:53:24;;;;;;;10.25;2.92;;;10.90;86.00;;;;;;5000712;28;20489;-74
2021/11/01 03:55:50;;;;;;;10.10;2.00;;;10.80;86.00;;;;;;5028757;28;20032;-71
2021/11/01 03:58:16;;;;;;;7.10;2.13;;;10.80;86.20;;;;;;5028330;28;20096;-71
2021/11/01 04:00:45;;;;;;;10.60;2.00;;;10.90;86.30;;;;;;5029252;28;20113;-71
2021/11/01 04:03:11;;;;;;;8.98;1.90;;;10.90;86.30;;;;;;4991461;28;20057;-71
2021/11/01 04:05:37;;;;;;;11.50;2.17;;;10.90;86.30;;;;;;5024766;28;20065;-71
2021/11/01 04:08:03;;;;;;;10.63;2.45;;;10.90;86.40;;;;;;5026443;28;20033;-72
2021/11/01 04:10:29;;;;;;;10.13;1.92;;;10.80;86.30;;;;;;5027579;28;20052;-71
2021/11/01 04:12:55;;;;;;;13.82;2.45;;;10.90;86.40;;;;;;5029064;28;20034;-72
2021/11/01 04:15:23;;;;;;;8.95;2.08;;;10.90;86.20;;;;;;5026015;28;20036;-71
2021/11/01 04:18:02;;;;;;;9.77;2.28;;;10.90;86.20;;;;;;5026248;28;20477;-72
2021/11/01 04:20:49;;;;;;;7.90;1.92;;;10.80;86.20;;;;;;5029064;28;20376;-75
2021/11/01 04:23:17;;;;;;;5.13;1.73;;;10.90;86.30;;;;;;5026760;28;20489;-75
2021/11/01 04:25:43;;;;;;;8.07;1.63;;;10.80;86.30;;;;;;5032229;28;20025;-75
2021/11/01 04:28:08;;;;;;;11.20;1.92;;;10.80;86.40;;;;;;5031713;28;20037;-75
2021/11/01 04:30:42;;;;;;;10.38;2.08;;;10.80;86.40;;;;;;5032144;28;20661;-75
2021/11/01 04:33:12;;;;;;;8.07;2.00;;;10.80;86.50;;;;;;5031181;28;20033;-75
2021/11/01 04:35:39;;;;;;;9.18;2.20;;;10.80;86.50;;;;;;5027576;28;20073;-72
2021/11/01 04:54:29;;;;;;;11.82;1.90;;;10.70;86.70;;;;;;5030540;28;20581;-75
2021/11/01 04:56:55;;;;;;;6.07;1.90;;;10.70;86.90;;;;;;5029989;28;20083;-75
2021/11/01 04:59:22;;;;;;;11.82;2.17;;;10.70;87.00;;;;;;5031272;28;20447;-75
2021/11/01 05:01:52;;;;;;;5.82;1.90;;;10.70;87.00;;;;;;5031462;28;20083;-74
2021/11/01 05:04:23;;;;;;;11.20;2.40;;;10.70;87.00;;;;;;5027306;28;20087;-73
2021/11/01 05:06:52;;;;;;;14.38;2.50;;;10.70;87.00;;;;;;5031167;28;20025;-71
2021/11/01 05:20:31;;;;;;;9.10;2.30;;;10.70;86.90;;;;;;5034746;28;20579;-75
2021/11/01 05:25:42;;;;;;;14.50;2.45;;;10.60;86.80;;;;;;5033021;28;20052;-75
2021/11/01 05:28:26;;;;;;;9.32;2.53;;;10.60;86.80;;;;;;5037998;28;20060;-75
2021/11/01 05:30:55;;;;;;;11.23;2.53;;;10.60;86.60;;;;;;5035107;28;20463;-75
2021/11/01 05:35:59;;;;;;;10.68;2.50;;;10.60;86.70;;;;;;5039433;28;20480;-75
2021/11/01 05:38:25;;;;;;;12.13;2.75;;;10.60;86.50;;;;;;5030762;28;20029;-75
2021/11/01 05:40:51;;;;;;;13.10;2.47;;;10.60;86.60;;;;;;5036904;28;20095;-75
2021/11/01 05:43:17;;;;;;;8.98;2.25;;;10.60;86.60;;;;;;5011686;28;20568;-75
2021/11/01 05:45:45;;;;;;;12.45;2.30;;;10.60;86.70;;;;;;5034218;28;20048;-75
2021/11/01 05:48:12;;;;;;;11.63;2.13;;;10.50;86.50;;;;;;5038182;28;20030;-75
2021/11/01 05:50:38;;;;;;;10.38;2.20;;;10.60;86.60;;;;;;5014816;28;20439;-71
2021/11/01 05:53:08;;;;;;;11.05;2.38;;;10.60;86.70;;;;;;5010010;28;20025;-71
2021/11/01 06:08:42;;;;;;;9.17;1.93;;;10.60;86.60;;;;;;5034736;28;20189;-71
2021/11/01 06:13:53;;;;;;;13.75;2.33;;;10.50;86.40;;;;;;5027449;28;20036;-71
2021/11/01 06:16:21;;;;;;;13.30;2.70;;;10.50;86.40;;;;;;5027784;28;20033;-72
2021/11/01 06:18:47;;;;;;;6.53;1.73;;;10.50;86.50;;;;;;5031293;28;20476;-72
2021/11/01 06:21:15;;;;;;;12.70;2.05;;;10.50;86.60;;;;;;5030892;28;20048;-71
2021/11/01 06:23:52;;;;;;;8.10;1.55;;;10.50;86.80;;;;;;5033101;28;20037;-71
2021/11/01 06:26:21;;;;;;;14.35;2.38;;;10.50;86.80;;;;;;5029739;28;20025;-71
2021/11/01 06:28:51;;;;;;;8.95;2.13;;;10.50;86.70;;;;;;5007831;28;20550;-71
2021/11/01 06:31:24;;;;;;;10.50;2.00;;;10.50;86.90;;;;;;5016056;28;20541;-75
2021/11/01 06:34:17;;;;;;;15.55;3.38;;;10.50;86.90;;;;;;5027436;28;20066;-72
2021/11/01 06:39:49;;;;;;;11.73;2.20;;;10.60;86.90;;;;;;5032733;28;20076;-72
2021/11/01 06:42:22;;;;;;;12.05;2.13;;;10.50;86.90;;;;;;5020452;28;20068;-72
2021/11/01 06:50:12;;;;;;;13.95;2.30;;;10.60;86.80;;;;;;5035865;28;20469;-72
2021/11/01 06:53:11;;;;;;;10.75;2.10;;;10.60;86.50;;;;;;5025142;28;20032;-72
2021/11/01 06:55:51;;;;;;;9.85;2.72;;;10.70;86.70;;;;;;5023386;28;20061;-72
2021/11/01 07:14:40;;;;;;;9.27;2.13;;;10.80;85.70;;;;;;5030128;28;20090;-71
2021/11/01 07:17:14;;;;;;;13.25;2.72;;;10.80;85.40;;;;;;5031657;28;20105;-76
2021/11/01 07:20:00;;;;;;;10.07;2.40;;;10.80;85.40;;;;;;5024530;28;20473;-76
2021/11/01 07:25:24;;;;;;;10.45;2.40;;;10.80;85.10;;;;;;5027199;28;20045;-71
2021/11/01 09:01:12;;;;;;;8.13;1.80;;;11.70;80.70;;;;;;5028779;28;20034;-75
2021/11/01 09:27:06;;;;;;;8.17;1.90;;;11.80;80.10;;;;;;5027893;28;20495;-76
2021/11/01 09:29:50;;;;;;;10.32;3.83;;;11.90;80.20;;;;;;5028328;28;20544;-72
2021/11/01 09:38:13;;;;;;;5.15;1.73;;;12.00;78.50;;;;;;5029595;28;20048;-71
2021/11/01 09:43:24;;;;;;;9.10;2.00;;;12.00;78.70;;;;;;5034707;28;20102;-75
2021/11/01 09:46:10;;;;;;;10.63;2.30;;;12.00;79.30;;;;;;5027087;28;20041;-74
2021/11/01 09:48:38;;;;;;;9.93;1.95;;;12.10;78.70;;;;;;5026186;28;20815;-69
2021/11/01 09:51:04;;;;;;;8.70;2.03;;;12.10;77.80;;;;;;5036182;28;20032;-77
2021/11/01 09:53:41;;;;;;;9.63;2.17;;;12.10;77.30;;;;;;5034671;28;20029;-75
2021/11/01 09:56:29;;;;;;;9.68;1.83;;;12.10;77.50;;;;;;5031096;28;20036;-76
2021/11/01 09:59:11;;;;;;;6.15;1.75;;;12.20;77.80;;;;;;5036131;28;20108;-75
2021/11/01 10:01:52;;;;;;;6.78;1.70;;;12.40;77.60;;;;;;5039014;28;20027;-76
2021/11/01 10:04:37;;;;;;;6.97;2.03;;;12.60;77.10;;;;;;5019751;28;20029;-76
2021/11/01 10:07:25;;;;;;;7.20;1.90;;;12.70;75.70;;;;;;5030819;28;20465;-70
2021/11/01 10:10:18;;;;;;;11.57;2.33;;;12.80;75.20;;;;;;5033937;28;20026;-70
2021/11/01 10:12:47;;;;;;;6.80;1.80;;;12.80;75.00;;;;;;5037518;28;20103;-70
2021/11/01 10:18:13;;;;;;;6.32;1.90;;;12.90;74.90;;;;;;5032676;28;20028;-72
2021/11/01 10:20:41;;;;;;;7.10;1.73;;;13.00;73.80;;;;;;5036312;28;20051;-72
2021/11/01 10:23:17;;;;;;;6.78;1.40;;;13.10;74.20;;;;;;5031255;28;20059;-73
2021/11/01 10:25:43;;;;;;;7.65;1.90;;;13.30;73.50;;;;;;5038376;28;20033;-73
2021/11/01 10:28:09;;;;;;;5.28;1.55;;;13.30;73.20;;;;;;5031290;28;20555;-72
2021/11/01 10:30:36;;;;;;;6.43;2.17;;;13.30;74.20;;;;;;5032212;28;20041;-71
2021/11/01 10:33:07;;;;;;;6.22;1.83;;;13.20;73.50;;;;;;5036911;28;20052;-72
2021/11/01 10:35:36;;;;;;;6.50;1.67;;;13.10;72.60;;;;;;5026882;28;20068;-73
2021/11/01 10:38:29;;;;;;;7.00;2.00;;;13.10;72.70;;;;;;5029376;28;20013;-72
2021/11/01 10:41:08;;;;;;;6.35;2.08;;;13.10;72.80;;;;;;5029502;28;20496;-72
2021/11/01 11:11:17;;;;;;;6.18;1.70;;;13.50;70.80;;;;;;5045756;28;20395;-72
2021/11/01 11:13:59;;;;;;;4.95;1.38;;;13.70;70.70;;;;;;5031207;28;20124;-73
2021/11/01 11:19:35;;;;;;;5.30;1.23;;;14.00;69.10;;;;;;5028691;28;20033;-80
2021/11/01 11:33:09;;;;;;;8.25;1.60;;;14.80;68.00;;;;;;5040990;28;20033;-80
2021/11/01 11:42:17;;;;;;;6.65;1.25;;;16.30;63.00;;;;;;5031129;28;20503;-79
2021/11/01 11:47:04;;;;;;;3.75;1.20;;;16.40;62.00;;;;;;5027620;28;20038;-80
2021/11/01 11:47:25;;;;;;;6.78;1.83;;;17.00;60.10;;;;;;5026792;28;20037;-73
2021/11/01 11:49:52;;;;;;;5.05;1.40;;;17.20;59.50;;;;;;5031752;28;20489;-80
2021/11/01 11:52:21;;;;;;;5.78;1.30;;;17.50;58.30;;;;;;5030615;28;20017;-80
2021/11/01 11:54:52;;;;;;;4.22;1.25;;;17.70;57.40;;;;;;5031419;28;20504;-78
2021/11/01 11:57:25;;;;;;;4.88;1.55;;;17.30;58.10;;;;;;5015803;28;20022;-78
2021/11/01 11:59:54;;;;;;;5.88;1.50;;;16.70;58.90;;;;;;5032815;28;20037;-79
2021/11/01 12:02:38;;;;;;;5.07;1.38;;;16.30;60.00;;;;;;5023011;28;20022;-79
2021/11/01 12:05:18;;;;;;;4.32;1.30;;;17.10;59.20;;;;;;5027366;28;20021;-79
2021/11/01 12:07:59;;;;;;;4.93;1.27;;;18.00;54.90;;;;;;5028508;28;20540;-79
2021/11/01 12:18:53;;;;;;;7.55;1.70;;;16.80;58.80;;;;;;5026494;28;20064;-72
2021/11/01 12:21:20;;;;;;;4.93;1.42;;;17.10;57.90;;;;;;5027030;28;20480;-73
2021/11/01 12:23:46;;;;;;;4.07;1.55;;;16.90;58.30;;;;;;5014719;28;20060;-72
2021/11/01 12:26:17;;;;;;;4.60;1.30;;;17.10;57.90;;;;;;5031997;28;20021;-72
2021/11/01 12:28:49;;;;;;;4.57;1.38;;;18.00;55.80;;;;;;5030390;28;20032;-72
2021/11/01 12:31:15;;;;;;;5.38;1.63;;;19.20;53.30;;;;;;5030931;28;20451;-72
2021/11/01 12:33:50;;;;;;;6.32;1.45;;;20.10;50.70;;;;;;5031959;28;20060;-73
2021/11/01 12:36:19;;;;;;;4.30;1.25;;;20.40;49.10;;;;;;5023606;28;20542;-73
2021/11/01 12:41:23;;;;;;;7.13;1.55;;;19.20;51.50;;;;;;5031186;28;20400;-72
2021/11/01 12:47:04;;;;;;;5.88;1.95;;;17.60;55.70;;;;;;5028381;28;20041;-73
2021/11/01 12:57:35;;;;;;;6.25;1.27;;;16.60;58.30;;;;;;5025477;28;20033;-75
2021/11/01 13:00:03;;;;;;;7.50;1.70;;;16.20;58.60;;;;;;5028973;28;20036;-74
2021/11/01 13:02:34;;;;;;;5.28;1.17;;;15.90;58.70;;;;;;5019344;28;20045;-74
2021/11/01 13:05:07;;;;;;;4.65;1.10;;;15.70;59.50;;;;;;5030654;28;20029;-75
2021/11/01 13:12:55;;;;;;;5.63;1.40;;;15.40;62.40;;;;;;5031069;28;20512;-74
2021/11/01 13:18:14;;;;;;;7.38;1.48;;;15.30;61.70;;;;;;5026856;28;20471;-74
2021/11/01 13:20:41;;;;;;;5.97;1.50;;;15.40;60.80;;;;;;5013716;28;20029;-74
2021/11/01 13:23:08;;;;;;;6.40;1.58;;;15.80;59.90;;;;;;5028942;28;20034;-74
2021/11/01 13:25:46;;;;;;;5.55;1.23;;;16.30;59.80;;;;;;5028396;28;20064;-73
2021/11/01 13:37:31;;;;;;;3.13;1.00;;;16.80;57.10;;;;;;5025316;28;20075;-74
2021/11/01 13:40:09;;;;;;;7.88;1.40;;;16.60;57.60;;;;;;5026643;28;20029;-77
2021/11/01 13:42:36;;;;;;;3.15;1.10;;;16.40;57.70;;;;;;5027841;28;20033;-75
2021/11/01 13:45:14;;;;;;;4.97;1.20;;;16.20;58.40;;;;;;5027579;28;20040;-77
2021/11/01 13:47:48;;;;;;;5.88;1.50;;;16.00;58.90;;;;;;5026604;28;20029;-73
2021/11/01 13:50:16;;;;;;;3.83;1.23;;;15.90;59.00;;;;;;5011207;28;20037;-73
2021/11/01 13:52:45;;;;;;;5.00;1.73;;;15.80;59.80;;;;;;5028057;28;20037;-73
2021/11/01 13:57:47;;;;;;;5.15;1.67;;;15.90;59.50;;;;;;5021646;28;20033;-73
2021/11/01 14:11:17;;;;;;;6.40;1.27;;;15.50;60.80;;;;;;5029081;28;20064;-77
2021/11/01 14:16:21;;;;;;;6.43;1.17;;;15.30;62.00;;;;;;5026503;28;20041;-76
2021/11/01 14:18:57;;;;;;;7.45;1.10;;;15.30;61.40;;;;;;5028042;28;20064;-75
2021/11/01 15:01:36;;;;;;;5.05;1.48;;;14.60;63.70;;;;;;5029316;28;20037;-74
2021/11/01 15:12:24;;;;;;;5.22;1.50;;;14.80;64.40;;;;;;5025865;28;20518;-75
2021/11/01 15:15:03;;;;;;;5.65;1.55;;;14.90;64.00;;;;;;5026538;28;20378;-75
2021/11/01 15:22:56;;;;;;;7.30;1.60;;;14.70;64.20;;;;;;5034337;28;20045;-75
2021/11/01 15:32:14;;;;;;;5.60;1.27;;;14.50;64.50;;;;;;5023705;28;20041;-73
2021/11/01 15:34:51;;;;;;;3.22;1.02;;;14.50;65.50;;;;;;5021306;28;20065;-73
2021/11/01 16:15:44;;;;;;;5.68;1.48;;;13.90;67.60;;;;;;5026476;28;20113;-76
2021/11/01 16:20:26;;;;;;;6.18;1.50;;;13.90;67.60;;;;;;5039409;28;20037;-76
2021/11/01 16:23:18;;;;;;;6.13;1.52;;;13.90;68.50;;;;;;5034968;28;20032;-73
2021/11/01 16:25:44;;;;;;;5.72;1.23;;;13.90;68.50;;;;;;5039774;28;20038;-72
2021/11/01 16:28:11;;;;;;;8.93;2.20;;;13.80;68.70;;;;;;5031561;28;20416;-73
2021/11/01 16:30:38;;;;;;;7.05;1.63;;;13.80;68.60;;;;;;5030188;28;20029;-74
2021/11/01 16:33:07;;;;;;;6.43;1.48;;;13.80;69.00;;;;;;5037081;28;20037;-73
2021/11/01 16:35:44;;;;;;;4.65;1.40;;;13.80;69.00;;;;;;5037030;28;20041;-73
2021/11/01 16:38:35;;;;;;;7.40;1.48;;;13.70;69.40;;;;;;5033803;28;20056;-73
2021/11/01 16:40:56;;;;;;;4.43;1.30;;;13.70;69.40;;;;;;5034122;28;20038;-73
2021/11/01 16:43:25;;;;;;;5.55;1.52;;;13.70;69.20;;;;;;5038482;28;20396;-73
2021/11/01 16:45:53;;;;;;;5.03;1.63;;;13.60;69.50;;;;;;5030597;28;20064;-75
2021/11/01 16:48:22;;;;;;;4.70;1.30;;;13.70;69.90;;;;;;5030785;28;20060;-76
2021/11/01 16:50:52;;;;;;;5.70;1.20;;;13.60;69.80;;;;;;5031240;28;20017;-76
2021/11/01 16:53:19;;;;;;;7.28;1.48;;;13.60;69.90;;;;;;5031569;28;20517;-75
2021/11/01 16:55:48;;;;;;;9.00;1.67;;;13.60;69.80;;;;;;5033997;28;20424;-76
2021/11/01 16:58:20;;;;;;;6.70;1.50;;;13.50;70.00;;;;;;5034416;28;20024;-76
2021/11/01 17:01:01;;;;;;;8.07;2.03;;;13.60;70.50;;;;;;5027334;28;20025;-77
2021/11/01 17:03:40;;;;;;;6.72;1.80;;;13.60;70.40;;;;;;5029272;28;20032;-76
2021/11/01 17:06:15;;;;;;;6.45;1.90;;;13.60;70.70;;;;;;5027640;28;20160;-76
2021/11/01 17:25:23;;;;;;;2.50;1.00;;;12.90;74.90;;;;;;5003494;28;20030;-73
2021/11/01 17:36:25;;;;;;;2.40;1.02;;;12.70;75.80;;;;;;5017879;28;20131;-73
2021/11/01 18:40:51;;;;;;;3.20;1.80;;;12.60;78.70;;;;;;5019631;28;20041;-73
2021/11/01 18:43:33;;;;;;;2.50;1.67;;;12.50;78.80;;;;;;5004354;28;20029;-74
2021/11/01 18:46:27;;;;;;;4.93;1.75;;;12.50;78.60;;;;;;5022016;28;20546;-76
2021/11/01 18:51:56;;;;;;;3.08;1.67;;;12.40;78.60;;;;;;5010634;28;20503;-74
2021/11/01 18:54:27;;;;;;;2.85;1.50;;;12.40;79.00;;;;;;5017459;28;20084;-76
2021/11/01 18:56:57;;;;;;;4.72;1.48;;;12.40;78.90;;;;;;5023413;28;20039;-77
2021/11/01 18:59:24;;;;;;;2.70;1.60;;;12.30;78.90;;;;;;5027476;28;20021;-76
2021/11/01 19:02:09;;;;;;;4.22;1.20;;;12.30;78.80;;;;;;5023151;28;20129;-76
2021/11/01 19:04:43;;;;;;;2.65;1.20;;;12.30;78.80;;;;;;5020565;28;20065;-74
2021/11/01 19:10:03;;;;;;;2.22;1.50;;;12.20;78.60;;;;;;5026261;28;20120;-76
2021/11/01 20:13:14;;;;;;;3.50;2.22;;;11.40;77.50;;;;;;5030226;28;20034;-72
2021/11/01 21:25:20;;;;;;;7.38;6.15;;;10.50;76.60;;;;;;5021834;28;20511;-72
2021/11/01 21:27:46;;;;;;;9.70;5.70;;;10.40;76.60;;;;;;5018481;28;20113;-73
2021/11/01 21:30:12;;;;;;;7.85;5.90;;;10.40;76.70;;;;;;5005924;28;20044;-73
2021/11/01 21:32:40;;;;;;;6.97;5.80;;;10.40;76.60;;;;;;5014708;28;20029;-72
2021/11/01 21:35:15;;;;;;;7.25;6.43;;;10.40;76.70;;;;;;5016942;28;20046;-73
2021/11/01 21:37:45;;;;;;;6.97;6.20;;;10.40;76.60;;;;;;5020356;28;20388;-73
2021/11/01 21:40:12;;;;;;;7.88;6.53;;;10.30;76.40;;;;;;5010905;28;20388;-73
2021/11/01 21:42:38;;;;;;;9.32;5.88;;;10.30;76.40;;;;;;5023706;28;20057;-73
2021/11/01 21:45:05;;;;;;;8.90;6.13;;;10.30;76.40;;;;;;5026807;28;20034;-73
2021/11/01 21:47:31;;;;;;;6.38;5.38;;;10.30;76.30;;;;;;5020443;28;20333;-73
2021/11/01 21:49:57;;;;;;;7.82;5.93;;;10.20;76.30;;;;;;5011771;28;20033;-73
2021/11/01 21:52:23;;;;;;;7.22;5.78;;;10.20;76.40;;;;;;5028838;28;20025;-73
2021/11/01 21:54:55;;;;;;;5.97;5.25;;;10.20;76.40;;;;;;5028454;28;20025;-73
2021/11/01 21:57:48;;;;;;;6.15;5.18;;;10.10;76.30;;;;;;5017616;28;20485;-73
2021/11/01 22:16:47;;;;;;;7.43;4.57;;;9.90;77.00;;;;;;5034103;28;20044;-75
2021/11/01 22:22:07;;;;;;;8.27;4.90;;;9.80;76.90;;;;;;5029498;28;20037;-74
2021/11/01 22:24:42;;;;;;;5.88;4.88;;;9.80;77.10;;;;;;5019632;28;20092;-74
2021/11/01 22:40:55;;;;;;;6.10;4.57;;;9.70;77.80;;;;;;5021431;28;20109;-75
2021/11/01 22:58:50;;;;;;;7.28;3.78;;;9.60;78.20;;;;;;5029754;28;20441;-76
2021/11/01 23:01:24;;;;;;;5.53;3.83;;;9.60;78.20;;;;;;5028101;28;20112;-75
2021/11/01 23:06:32;;;;;;;5.57;3.60;;;9.50;78.20;;;;;;5029968;28;20034;-77
2021/11/01 23:31:46;;;;;;;5.35;3.67;;;9.40;78.20;;;;;;5028407;28;20064;-73
2021/11/01 23:33:53;;;;;;;3.85;2.90;;;9.30;78.20;;;;;;5024840;28;20033;-75
2021/11/01 23:36:19;;;;;;;6.50;3.13;;;9.30;78.20;;;;;;5028817;28;20513;-75
2021/11/01 23:38:45;;;;;;;5.15;3.33;;;9.30;78.20;;;;;;5029103;28;20017;-75
2021/11/01 23:41:11;;;;;;;4.65;3.35;;;9.20;78.30;;;;;;5027949;28;20404;-75
2021/11/01 23:43:37;;;;;;;6.60;3.85;;;9.20;78.40;;;;;;5028435;28;20517;-76
2021/11/01 23:46:03;;;;;;;9.60;4.10;;;9.20;78.50;;;;;;5027514;28;20120;-76
2021/11/01 23:48:28;;;;;;;9.27;4.53;;;9.20;78.40;;;;;;5028762;28;20037;-75
2021/11/01 23:50:55;;;;;;;4.72;3.33;;;9.20;78.40;;;;;;5026914;28;20095;-76
2021/11/01 23:55:58;;;;;;;6.75;3.92;;;9.20;78.50;;;;;;5023726;28;20037;-75
2021/11/01 23:58:24;;;;;;;6.15;3.92;;;9.10;78.60;;;;;;5028568;28;20021;-75
